Saturday, December 15, 2018, 11:36 PM EST
Back to Local

KDOV, Dover Air Force Base

Location: Dover, DE, United States Lat: 39.133
Local Time: 11:36 PM EST ( 4:36 GMT) Lon: -75.467
Time Zone: US/Eastern Elev: 29 ft

Show me the last for .
Show Decoded

2018-12-15 23:10 METAR KDOV 160410Z AUTO 04014KT 3SM -RA BR OVC007 10/10 A2992 RMK AO2 CIG 003
                 RWY19 SLP135 $ =
2018-12-15 23:00 METAR KDOV 160400Z AUTO 04014KT 3SM -RA BR OVC006 10/10 A2993 RMK AO2 CIG 003
                 RWY19 SLP138 $ =
2018-12-15 22:40 METAR KDOV 160340Z AUTO 05009KT 3SM -RA BR OVC006 10/10 A2994 RMK AO2 CIG 002
                 RWY19 SLP142 $ =
2018-12-15 22:28 METAR KDOV 160328Z AUTO 05010KT 2SM RA BR OVC006 10/10 A2995 RMK AO2 CIG 006V009
                 CIG 002 RWY19 SLP145 $ =
2018-12-15 22:24 METAR KDOV 160324Z AUTO 05010KT 1 7/8SM RA BR OVC008 10/10 A2995 RMK AO2 CIG 002
                 RWY19 SLP145 $ =
2018-12-15 22:08 METAR KDOV 160308Z AUTO 06013KT 2 1/4SM -RA BR OVC009 10/10 A2996 RMK AO2 CIG
                 002 RWY19 SLP149 $ =
2018-12-15 22:00 METAR KDOV 160300Z AUTO 05014KT 1 7/8SM RA BR OVC008 10/10 A2997 RMK AO2 CIG 002
                 RWY19 SLP152 $ =
2018-12-15 21:56 METAR KDOV 160256Z AUTO 05014KT 2 1/4SM RA BR OVC008 10/10 A2997 RMK AO2 CIG 002
                 RWY19 SLP152 P0015 60028 T01030103 58012 $ =
2018-12-15 21:48 METAR KDOV 160248Z AUTO 05012KT 2SM -RA BR OVC008 10/10 A2997 RMK AO2 CIG 002
                 RWY19 SLP152 $ =
2018-12-15 21:38 METAR KDOV 160238Z AUTO 05013KT 1 7/8SM RA BR OVC007 10/10 A2997 RMK AO2 CIG
                 007V009 CIG 002 RWY19 SLP152 $ =
2018-12-15 21:34 METAR KDOV 160234Z AUTO 04013KT 2 1/4SM -RA BR OVC007 10/10 A2998 RMK AO2 CIG
                 007V009 CIG 002 RWY19 SLP155 $ =
2018-12-15 21:04 METAR KDOV 160204Z AUTO 05013G19KT 2SM RA BR OVC009 10/10 A2998 RMK AO2 CIG
                 007V009 CIG 002 RWY19 SLP155 $ =
2018-12-15 20:56 METAR KDOV 160156Z AUTO 04012KT 1 3/4SM RA BR OVC007 10/10 A2998 RMK AO2 VIS 1
                 3/4V2 1/4 CIG 004V007 CIG 002 RWY19 SLP155 P0011 T01010101 $ =
2018-12-15 20:50 METAR KDOV 160150Z AUTO 04013KT 1 7/8SM RA BR OVC005 10/10 A2999 RMK AO2 VIS 1
                 7/8V2 3/4 CIG 002 RWY19 SLP159 $ =
2018-12-15 20:42 METAR KDOV 160142Z AUTO 04011KT 2 3/4SM -RA BR OVC004 10/10 A2999 RMK AO2 CIG
                 002 RWY19 SLP159 $ =
2018-12-15 20:38 METAR KDOV 160138Z AUTO 05012KT 3SM -RA BR OVC004 10/10 A2999 RMK AO2 CIG 002
                 RWY19 SLP159 $ =
2018-12-15 20:06 METAR KDOV 160106Z AUTO 04010KT 5SM -RA BR OVC004 10/10 A3000 RMK AO2 CIG 002
                 RWY19 SLP162 $ =
2018-12-15 19:56 METAR KDOV 160056Z AUTO 05013KT 5SM -RA BR OVC003 11/11 A3000 RMK AO2
                 DZB02E04RAB04 CIG 002 RWY19 SLP162 P0002 T01060106 $ =
2018-12-15 19:32 METAR KDOV 160032Z AUTO 04012KT 3SM -RA BR OVC003 11/11 A2999 RMK AO2
                 DZB02E04RAB04 CIG 002 RWY19 SLP159 $ =
2018-12-15 19:02 METAR KDOV 160002Z AUTO 06013KT 4SM -DZ BR OVC004 11/11 A3000 RMK AO2 DZB02 CIG
                 002 RWY19 SLP162 =
2018-12-15 19:00 METAR KDOV 160000Z AUTO 06013KT 3SM BR OVC004 11/11 A3000 RMK AO2 CIG 002 RWY19
                 SLP162 =
2018-12-15 18:56 METAR KDOV 152356Z AUTO 05014KT 2 3/4SM BR OVC004 11/11 A3000 RMK AO2
                 RAE03DZB03E06 CIG 002 RWY19 SLP162 P0000 60013 T01060106 10119 20098 53002 =
2018-12-15 18:36 METAR KDOV 152336Z AUTO 04013G16KT 2 1/2SM BR OVC003 11/11 A3000 RMK AO2
                 RAE03DZB03E06 CIG 002 RWY19 SLP162 =
2018-12-15 18:06 METAR KDOV 152306Z AUTO 02010KT 2 1/4SM BR OVC002 10/10 A3000 RMK AO2 VIS 1
                 5/8V2 1/4 RAE03DZB03E06 SLP162 =
2018-12-15 18:04 METAR KDOV 152304Z AUTO 02010KT 2SM -DZ BR OVC002 10/10 A3000 RMK AO2 VIS 1
                 3/8V2 RAE03DZB03 PRESRR SLP162 =
2018-12-15 17:56 METAR KDOV 152256Z AUTO 05010KT 1 1/2SM -RA BR OVC002 10/10 A2998 RMK AO2 VIS
                 7/8V1 1/2 RAE09DZB09E11RAB50 SLP155 P0000 T01000100 =
2018-12-15 17:54 METAR KDOV 152254Z AUTO 05011G20KT 1 3/8SM -RA BR OVC002 10/10 A2998 RMK AO2 VIS
                 7/8V1 3/8 RAE09DZB09E11RAB50 SLP155 =
2018-12-15 17:50 METAR KDOV 152250Z AUTO 06013G20KT 1 1/8SM -RA BR OVC002 10/10 A2997 RMK AO2
                 RAE09DZB09E11RAB50 SLP152 =
2018-12-15 17:49 METAR KDOV 152249Z AUTO 05014G20KT 1 1/8SM R01/6000FT BR VV002 10/10 A2996 RMK
                 AO2 RAE09DZB09E11 SLP149 =
2018-12-15 17:45 METAR KDOV 152245Z AUTO 05016KT 7/8SM R01/4500VP6000FT BR VV002 10/10 A2995 RMK
                 AO2 RAE09DZB09E11 SLP145 =
2018-12-15 17:41 METAR KDOV 152241Z AUTO 05018KT 3/4SM R01/4000V5000FT BR VV002 10/10 A2994 RMK
                 AO2 VIS 3/4V1 3/8 RAE09DZB09E11 SLP142 =
2018-12-15 17:37 METAR KDOV 152237Z AUTO 06016KT 7/8SM R01/4000V6000FT BR VV002 10/10 A2994 RMK
                 AO2 VIS 7/8V2 1/4 RAE09DZB09E11 PRESFR SLP142 =
2018-12-15 17:33 METAR KDOV 152233Z AUTO 06014KT 1 1/4SM BR OVC003 10/10 A2996 RMK AO2 VIS 1
                 1/4V2 3/4 RAE09DZB09E11 CIG 002 RWY19 PRESFR SLP149 =
2018-12-15 17:25 METAR KDOV 152225Z AUTO 05015KT 2 3/4SM BR OVC003 11/11 A2998 RMK AO2
                 RAE09DZB09E11 CIG 002 RWY19 SLP155 =
2018-12-15 17:21 METAR KDOV 152221Z AUTO 05012KT 3SM BR OVC003 11/11 A2999 RMK AO2 RAE09DZB09E11
                 CIG 002 RWY19 SLP159 =
2018-12-15 17:11 METAR KDOV 152211Z AUTO 04010KT 4SM BR OVC004 11/11 A2999 RMK AO2 RAE09DZB09E11
                 CIG 002 RWY19 PRESRR SLP159 =
2018-12-15 16:56 METAR KDOV 152156Z AUTO 07016G23KT 5SM -RA BR OVC004 11/11 A2997 RMK AO2
                 DZE2056RAB2056 CIG 002 RWY19 SLP152 P0003 T01080108 =
2018-12-15 16:36 METAR KDOV 152136Z AUTO 06011KT 6SM -RA BR OVC004 11/11 A2999 RMK AO2
                 DZE2056RAB2056 CIG 004V006 CIG 003 RWY19 SLP159 =
2018-12-15 15:56 METAR KDOV 152056Z AUTO 05011KT 4SM -DZ BR OVC006 11/11 A2999 RMK AO2
                 RAB18E46DZB46 CIG 004 RWY19 SLP159 P0001 60010 T01110111 55008 =
2018-12-15 15:18 METAR KDOV 152018Z AUTO 04011KT 10SM -RA OVC007 11/11 A3000 RMK AO2 RAB18 SLP162
                 =
2018-12-15 15:16 METAR KDOV 152016Z AUTO 03009KT 10SM OVC007 11/11 A3000 RMK AO2 SLP162 =
2018-12-15 15:06 METAR KDOV 152006Z AUTO 04011KT 10SM OVC008 11/11 A2999 RMK AO2 CIG 007 RWY19
                 SLP159 =
2018-12-15 14:56 METAR KDOV 151956Z AUTO 04011KT 10SM OVC007 11/11 A2998 RMK AO2 RAE13DZB13E14
                 SLP156 P0001 T01110111 =
2018-12-15 14:34 METAR KDOV 151934Z COR AUTO 04014KT 10SM SCT003 OVC007 11/11 A2997 RMK AO2
                 RAE13DZB13E14 CIG 005V007 CIG 003 RWY19 PRESFR SLP152 COR 1937 =
2018-12-15 14:24 METAR KDOV 151924Z COR 04013KT 10SM SCT003 OVC005 11/11 A2999 RMK AO2A
                 RAE13DZB13E14 CIG 003 RWY19 SLP159 COR 1929 =
2018-12-15 14:14 METAR KDOV 151914Z 03012KT 10SM SCT003 OVC007 11/11 A2999 RMK AO2A RAE13DZB13E14
                 CIG 003 RWY19 PRESRR SLP159 =
2018-12-15 13:56 METAR KDOV 151856Z 03013KT 4SM -RA BR SCT003 OVC007 12/12 A2997 RMK AO2A CIG 003
                 RWY19 SLP152 P0008 T01190119 =
2018-12-15 13:52 METAR KDOV 151852Z AUTO 03016KT 4SM -RA BR OVC007 12/12 A2996 RMK AO2 CIG 003
                 RWY19 PRESFR SLP149 =
2018-12-15 13:24 METAR KDOV 151824Z AUTO 02012KT 2 3/4SM RA BR OVC006 11/11 A3002 RMK AO2 VIS 2
                 3/4V5 CIG 003 RWY19 SLP169 =
2018-12-15 12:56 METAR KDOV 151756Z AUTO 02012KT 4SM -RA BR OVC006 12/12 A3001 RMK AO2 CIG 003
                 RWY19 SLP166 P0007 60017 T01150115 10120 20111 57011 =
2018-12-15 12:44 METAR KDOV 151744Z AUTO 02012KT 3SM -RA BR OVC006 12/12 A3001 RMK AO2 CIG 003
                 RWY19 SLP166 =
2018-12-15 12:34 METAR KDOV 151734Z AUTO 02011KT 2 1/4SM RA BR OVC005 12/12 A3002 RMK AO2 VIS 2
                 1/4V4 CIG 003 RWY19 SLP169 =
2018-12-15 12:26 METAR KDOV 151726Z AUTO 02012KT 4SM -RA BR OVC005 12/12 A3001 RMK AO2 CIG 003
                 RWY19 SLP166 =
2018-12-15 12:16 METAR KDOV 151716Z AUTO 02013KT 4SM -RA BR OVC004 12/12 A3002 RMK AO2 CIG 003
                 RWY19 SLP169 =
2018-12-15 11:56 METAR KDOV 151656Z AUTO 01011KT 5SM -RA BR OVC003 12/12 A3002 RMK AO2 RAB10
                 SLP169 P0003 T01150115 =
2018-12-15 11:54 METAR KDOV 151654Z AUTO 01013KT 5SM -RA BR OVC003 12/12 A3002 RMK AO2 RAB10
                 SLP169 =
2018-12-15 11:44 METAR KDOV 151644Z AUTO 01011KT 6SM -RA BR OVC002 12/12 A3002 RMK AO2 RAB10
                 SLP169 =
2018-12-15 11:34 METAR KDOV 151634Z AUTO 01011KT 3SM -RA BR OVC001 12/12 A3002 RMK AO2 RAB10
                 SLP169 =
2018-12-15 11:26 METAR KDOV 151626Z AUTO 01011KT 2SM RA BR OVC001 12/12 A3002 RMK AO2 VIS 1 1/8V2
                 RAB10 SLP169 =
2018-12-15 11:22 METAR KDOV 151622Z AUTO 02011KT 1 5/8SM -RA BR OVC001 12/12 A3002 RMK AO2 VIS
                 7/8V1 5/8 RAB10 SLP169 =
2018-12-15 11:18 METAR KDOV 151618Z AUTO 02010KT 1 1/4SM R01/6000FT -RA BR OVC001 12/12 A3002 RMK
                 AO2 VIS 3/4V1 1/4 RAB10 SLP169 =
2018-12-15 11:14 METAR KDOV 151614Z AUTO 02010KT 1SM R01/4500VP6000FT -RA BR VV001 12/12 A3003
                 RMK AO2 RAB10 SLP172 =
2018-12-15 11:10 METAR KDOV 151610Z AUTO 02010KT 3/4SM R01/4500V5500FT -RA BR VV001 12/12 A3003
                 RMK AO2 RAB10 SLP172 =
2018-12-15 11:00 METAR KDOV 151600Z AUTO 01009KT 5/8SM R01/3500V4500FT BR VV001 12/12 A3004 RMK
                 AO2 SLP176 =
2018-12-15 10:56 METAR KDOV 151556Z AUTO 02009KT 1/2SM R01/3000V4500FT FG VV001 12/12 A3004 RMK
                 AO2 RAE51 SLP176 P0001 T01170117 =
2018-12-15 10:51 METAR KDOV 151551Z AUTO 02010KT 1/2SM R01/3000V4500FT FG VV001 12/12 A3004 RMK
                 AO2 VIS 1/2V1 RAE51 SLP176 =
2018-12-15 10:49 METAR KDOV 151549Z AUTO 02009KT 5/8SM R01/3000V5500FT -RA BR VV001 12/12 A3004
                 RMK AO2 SLP176 =
2018-12-15 10:45 METAR KDOV 151545Z AUTO 02009KT 7/8SM R01/3000V5500FT -RA BR VV002 12/12 A3004
                 RMK AO2 SLP176 =
2018-12-15 10:41 METAR KDOV 151541Z AUTO 03010KT 1SM R01/4500V5500FT -RA BR VV002 12/12 A3004 RMK
                 AO2 SLP176 =
2018-12-15 10:31 METAR KDOV 151531Z AUTO 03010KT 1 1/8SM R01/5500FT -RA BR OVC002 12/12 A3005 RMK
                 AO2 SLP179 =
2018-12-15 10:26 METAR KDOV 151526Z AUTO 05012KT 1SM R01/4500V5500FT -RA BR VV002 12/12 A3005 RMK
                 AO2 SLP179 =
2018-12-15 10:21 METAR KDOV 151521Z AUTO 05011KT 1 1/8SM R01/5500FT -RA BR OVC002 12/12 A3005 RMK
                 AO2 SLP179 =
2018-12-15 10:16 METAR KDOV 151516Z AUTO 06010KT 1SM R01/4000VP6000FT -RA BR VV002 12/12 A3005
                 RMK AO2 SLP179 =
2018-12-15 10:12 METAR KDOV 151512Z AUTO 05011KT 7/8SM R01/3500V6000FT -RA BR VV002 12/12 A3005
                 RMK AO2 SLP179 =
2018-12-15 10:08 METAR KDOV 151508Z AUTO 05010KT 5/8SM R01/3500V4000FT -RA BR VV002 11/11 A3005
                 RMK AO2 SLP179 =
2018-12-15 10:00 METAR KDOV 151500Z AUTO 06011KT 3/4SM R01/4000V5000FT -RA BR VV002 11/11 A3005
                 RMK AO2 VIS 3/4V2 1/2 SLP179 =
2018-12-15 09:56 METAR KDOV 151456Z AUTO 06012KT 1 1/8SM R01/6000FT -RA BR OVC003 11/11 A3005 RMK
                 AO2 VIS 1 1/8V3 RAE12DZB12E17DZB36E45RAB45 CIG 002 RWY19 SLP179 P0000 60006
                 T01140114 57005 =
2018-12-15 09:52 METAR KDOV 151452Z AUTO 05011KT 1 7/8SM -RA BR OVC003 12/12 A3005 RMK AO2 VIS 1
                 7/8V3 RAE12DZB12E17DZB36E45RAB45 CIG 002 RWY19 SLP179 =
2018-12-15 09:44 METAR KDOV 151444Z AUTO 06012KT 3SM -DZ BR OVC003 12/12 A3005 RMK AO2
                 RAE12DZB12E17DZB36 CIG 002 RWY19 SLP179 =
2018-12-15 09:36 METAR KDOV 151436Z AUTO 06011KT 2 1/4SM -DZ BR OVC003 12/12 A3005 RMK AO2 VIS
                 2V2 1/2 RAE12DZB12E17DZB36 CIG 002 RWY19 SLP179 =
2018-12-15 09:27 METAR KDOV 151427Z AUTO 06011KT 2 1/2SM BR OVC003 12/12 A3005 RMK AO2 VIS 2
                 1/2V7 RAE12DZB12E17 CIG 002 RWY19 SLP179 =
2018-12-15 09:17 METAR KDOV 151417Z AUTO 06011KT 8SM BKN002 OVC011 12/12 A3006 RMK AO2
                 RAE12DZB12E17 CIG 002V011 BKN V SCT SLP183 =
2018-12-15 09:13 METAR KDOV 151413Z AUTO 06011KT 10SM -DZ BKN002 OVC011 12/12 A3006 RMK AO2
                 RAE12DZB12 CIG 002V011 BKN V SCT SLP183 =
2018-12-15 09:03 METAR KDOV 151403Z AUTO 06009KT 10SM -RA FEW003 OVC011 12/12 A3006 RMK AO2 CIG
                 003 RWY19 SLP183 =
2018-12-15 08:56 METAR KDOV 151356Z AUTO 05010KT 10SM -RA OVC011 12/12 A3006 RMK AO2
                 RAE1259DZB1259E02RAB02 SLP183 P0003 T01190119 =
2018-12-15 08:06 METAR KDOV 151306Z AUTO 04012KT 10SM -RA SCT003 OVC012 11/11 A3006 RMK AO2
                 RAE1259DZB1259E02RAB02 CIG 003V012 CIG 002 RWY19 SLP183 =
2018-12-15 07:56 METAR KDOV 151256Z AUTO 04011KT 10SM -RA BKN003 OVC012 11/11 A3006 RMK AO2
                 RAE50RAB50 CIG 002 RWY19 SLP183 P0003 T01140114 =
2018-12-15 07:51 METAR KDOV 151251Z AUTO 04011KT 10SM -RA BKN003 OVC012 12/12 A3006 RMK AO2
                 RAE50RAB50 BKN V OVC CIG 002 RWY19 SLP183 =
2018-12-15 07:50 METAR KDOV 151250Z AUTO 04011KT 10SM BKN003 OVC012 12/12 A3006 RMK AO2 RAE50 BKN
                 V OVC CIG 002 RWY19 SLP183 =
2018-12-15 07:26 METAR KDOV 151226Z AUTO 05011KT 6SM -RA BR OVC003 11/11 A3005 RMK AO2 CIG 002
                 RWY19 SLP179 $ =
2018-12-15 07:06 METAR KDOV 151206Z AUTO 04011KT 10SM -RA OVC002 11/11 A3006 RMK AO2 SLP183 $ =
2018-12-15 06:56 METAR KDOV 151156Z AUTO 04012KT 9SM -RA OVC003 11/11 A3006 RMK AO2 CIG 002 RWY19
                 SLP183 P0004 60035 70054 T01130113 10114 20090 57020 $ =
2018-12-15 06:36 METAR KDOV 151136Z AUTO 04012KT 7SM -RA OVC003 11/11 A3007 RMK AO2 CIG 002 RWY19
                 SLP186 $ =
2018-12-15 06:16 METAR KDOV 151116Z AUTO 04013KT 6SM -RA BR OVC002 11/11 A3007 RMK AO2 SLP186 $ =
2018-12-15 05:56 METAR KDOV 151056Z 04010KT 5SM -RA BR OVC003 11/11 A3008 RMK AO2A CIG 002 RWY19
                 SLP189 P0011 T01100110 $ =
2018-12-15 05:26 METAR KDOV 151026Z 04012KT 4SM RA BR OVC004 11/11 A3009 RMK AO2A CIG 002 RWY19
                 SLP193 $ =
2018-12-15 04:56 METAR KDOV 150956Z 04010KT 7SM -RA OVC005 11/11 A3010 RMK AO2A CIG 002 RWY19
                 SLP196 P0013 T01070107 $ =
2018-12-15 04:30 METAR KDOV 150930Z 02008KT 5SM RA BR OVC005 10/10 A3011 RMK AO2A CIG 002 RWY19
                 SLP200 $ =
2018-12-15 04:20 METAR KDOV 150920Z 01008KT 3SM RA BR OVC005 10/10 A3011 RMK AO2A CIG 002 RWY19
                 SLP200 $ =
2018-12-15 04:04 METAR KDOV 150904Z 02008KT 2 1/2SM +RA BR OVC005 10/10 A3012 RMK AO2A VIS 2
                 1/2V3 CIG 003V005 CIG 002 RWY19 SLP203 $ =
2018-12-15 03:56 METAR KDOV 150856Z 02008KT 3SM RA BR OVC003 10/10 A3012 RMK AO2A DZB02E07RAB07
                 CIG 002 RWY19 SLP203 P0004 60007 T01010101 57017 $ =
2018-12-15 03:47 METAR KDOV 150847Z 02008KT 4SM RA BR OVC003 10/10 A3012 RMK AO2A DZB02E07RAB07
                 CIG 001V003 OVC V BKN CIG 002 RWY19 SLP203 $ =
2018-12-15 03:42 METAR KDOV 150842Z 02006KT 5SM -RA BR BKN003 OVC009 10/10 A3013 RMK AO2A
                 DZB02E07RAB07 CIG 002 RWY19 SLP206 $ =
2018-12-15 03:16 METAR KDOV 150816Z 04006KT 2 1/4SM -RA BR BKN003 OVC010 10/10 A3015 RMK AO2A VIS
                 1 5/8V2 1/4 DZB02E07RAB07 CIG 002 RWY19 SLP213 $ =
2018-12-15 03:12 METAR KDOV 150812Z 05006KT 2SM -RA BR BKN000 OVC010 10/10 A3015 RMK AO2A VIS 1
                 1/2V2 DZB02E07RAB07 CIG 002 RWY19 SLP213 $ =
2018-12-15 03:08 METAR KDOV 150808Z 05006KT 1 3/4SM -RA BR BKN001 09/09 A3015 RMK AO2A
                 DZB02E07RAB07 SLP213 $ =
2018-12-15 03:02 METAR KDOV 150802Z 05006KT 1 1/2SM -DZ BR BKN001 09/09 A3015 RMK AO2A DZB02
                 SLP213 $ =
2018-12-15 03:00 METAR KDOV 150800Z 05006KT 1 3/8SM BR BKN001 09/09 A3015 RMK AO2A VIS 1 3/8V2
                 SLP213 $ =
2018-12-15 02:56 METAR KDOV 150756Z 06005KT 1 1/2SM BR BKN001 09/09 A3015 RMK AO2A VIS 1 1/2V2
                 1/2 DZE02 SLP213 P0000 T00930093 $ =
2018-12-15 02:26 METAR KDOV 150726Z 06006KT 2 1/2SM BR FEW001 SCT075 09/09 A3015 RMK AO2A VIS 1
                 3/4 RWY19 DZE02 SLP213 $ =
2018-12-15 02:21 METAR KDOV 150721Z 06006KT 2 1/2SM BR SCT075 BKN002 09/09 A3015 RMK VIS 2 1/4V2
                 3/4 VIS 1 3/4 RWY19 DZE02 SLP213 $ =
2018-12-15 02:14 METAR KDOV 150714Z AUTO 06006KT 2 1/4SM BR SCT075 09/09 A3015 RMK AO2 VIS 2
                 1/4V4 DZE02 SLP213 $ =
2018-12-15 02:02 METAR KDOV 150702Z 07006KT 5SM BR BKN075 09/09 A3015 RMK AO2A DZE02 SLP213 $ =
2018-12-15 01:56 METAR KDOV 150656Z 06006KT 4SM -DZ BR FEW021 SCT075 09/09 A3015 RMK AO2A
                 RAE51DZB51 SLP213 P0003 T00920090 $ =
2018-12-15 01:36 METAR KDOV 150636Z 08009KT 5SM -RA BR FEW002 SCT023 BKN034 09/09 A3016 RMK AO2A
                 SLP216 $ =
2018-12-15 01:32 METAR KDOV 150632Z 08007KT 5SM -RA BR FEW002 SCT023 BKN029 BKN035 BKN050 09/09
                 A3016 RMK AO2A CIG 003 RWY19 SLP216 $ =
2018-12-15 01:04 METAR KDOV 150604Z 11008KT 6SM -RA BR SCT002 SCT035 BKN050 09/09 A3017 RMK AO2A
                 SLP220 $ =
2018-12-15 00:56 METAR KDOV 150556Z 10006KT 5SM -RA BR BKN003 09/09 A3017 RMK AO2A SLP220 P0003
                 60019 T00890087 10097 20085 57025 $ =
2018-12-15 00:35 METAR KDOV 150535Z 10005KT 6SM -RA BR BKN003 BKN039 09/09 A3018 RMK AO2A CIG
                 003V039 BKN003 V FEW SLP223 $ =
2018-12-15 00:23 METAR KDOV 150523Z 10005KT 7SM -RA FEW003 SCT040 09/09 A3018 RMK AO2A SLP223 $ =
2018-12-14 23:56 METAR KDOV 150456Z 11005KT 7SM -RA FEW041 09/09 A3018 RMK AO2A SLP223 P0002
                 60017 T00910089 10097 20083 57027 $ =

Support USWX by starting your Amazon purchase here.